Time;durP1;ratioP1;P1;durP2;ratioP2;P2;SDS_P1;SDS_P2;PMS_P1;PMS_P2;Temp;Humidity;BMP_temperature;BMP_pressure;BME280_temperature;BME280_humidity;BME280_pressure;Samples;Min_cycle;Max_cycle;Signal;HPM_P1;HPM_P2
2021/12/08 00:01:52;;;;;;;13.88;8.50;;;;;;;-0.36;100.00;99598.19;1727876;79;21076;-81
2021/12/08 00:04:19;;;;;;;13.93;8.98;;;;;;;-0.35;100.00;99601.63;1727958;83;21003;-82
2021/12/08 00:06:45;;;;;;;12.00;7.75;;;;;;;-0.36;100.00;99603.80;1727110;83;20994;-79
2021/12/08 00:09:34;;;;;;;13.22;9.05;;;;;;;-0.38;100.00;99608.12;1727250;82;21045;-80
2021/12/08 00:14:40;;;;;;;17.57;10.10;;;;;;;-0.40;100.00;99609.40;1728947;83;21006;-83
2021/12/08 00:17:07;;;;;;;14.53;9.55;;;;;;;-0.45;100.00;99605.96;1728523;83;21014;-81
2021/12/08 00:19:33;;;;;;;16.12;10.20;;;;;;;-0.45;100.00;99599.50;1728334;83;21363;-85
2021/12/08 00:22:00;;;;;;;17.98;9.60;;;;;;;-0.46;100.00;99597.75;1736275;82;21033;-81
2021/12/08 00:24:26;;;;;;;15.95;9.80;;;;;;;-0.44;100.00;99606.38;1727973;83;21077;-82
2021/12/08 00:26:54;;;;;;;14.33;9.45;;;;;;;-0.43;100.00;99604.23;1728232;83;21117;-82
2021/12/08 00:29:21;;;;;;;15.10;9.98;;;;;;;-0.42;100.00;99609.83;1727473;82;21112;-82
2021/12/08 00:31:47;;;;;;;16.05;10.15;;;;;;;-0.40;100.00;99609.40;1694816;83;21066;-82
2021/12/08 00:34:14;;;;;;;15.78;10.10;;;;;;;-0.45;100.00;99611.98;1725090;82;21087;-83
2021/12/08 00:36:44;;;;;;;16.25;10.23;;;;;;;-0.47;100.00;99616.30;1745281;82;21120;-84
2021/12/08 00:39:10;;;;;;;17.95;11.05;;;;;;;-0.46;100.00;99615.86;1739155;82;21525;-81
2021/12/08 00:41:40;;;;;;;19.67;10.88;;;;;;;-0.49;100.00;99615.44;1738929;82;21006;-83
2021/12/08 00:44:07;;;;;;;18.90;11.15;;;;;;;-0.48;100.00;99622.79;1738517;82;21504;-83
2021/12/08 00:46:36;;;;;;;16.10;10.10;;;;;;;-0.49;100.00;99626.22;1738082;82;21085;-82
2021/12/08 00:49:05;;;;;;;16.77;10.43;;;;;;;-0.51;100.00;99617.59;1737977;82;21129;-84
2021/12/08 00:51:36;;;;;;;17.87;10.98;;;;;;;-0.46;100.00;99618.45;1737971;82;21069;-83
2021/12/08 00:54:02;;;;;;;16.32;10.10;;;;;;;-0.46;100.00;99627.09;1738043;82;21045;-85
2021/12/08 00:56:29;;;;;;;17.57;10.72;;;;;;;-0.48;100.00;99621.50;1705803;82;21046;-83
2021/12/08 00:58:55;;;;;;;17.10;10.03;;;;;;;-0.44;100.00;99619.31;1704934;84;21089;-83
2021/12/08 01:01:22;;;;;;;16.25;10.93;;;;;;;-0.43;100.00;99618.47;1709721;83;22108;-83
2021/12/08 01:03:49;;;;;;;19.12;10.80;;;;;;;-0.49;100.00;99600.36;1713255;83;21030;-82
2021/12/08 01:06:17;;;;;;;14.43;9.48;;;;;;;-0.40;100.00;99617.16;1713111;83;21053;-81
2021/12/08 01:08:45;;;;;;;17.48;10.63;;;;;;;-0.43;100.00;99610.70;1713302;82;21090;-84
2021/12/08 01:11:16;;;;;;;17.60;10.63;;;;;;;-0.44;100.00;99610.26;1713233;83;21065;-83
2021/12/08 01:13:44;;;;;;;17.10;10.35;;;;;;;-0.49;100.00;99601.20;1714518;83;21209;-83
2021/12/08 01:16:10;;;;;;;15.63;9.65;;;;;;;-0.50;100.00;99605.11;1713905;83;21018;-80
2021/12/08 01:18:37;;;;;;;15.20;9.50;;;;;;;-0.51;100.00;99596.91;1713381;82;21093;-80
2021/12/08 01:21:07;;;;;;;16.23;10.43;;;;;;;-0.54;100.00;99596.91;1713574;82;21050;-83
2021/12/08 01:23:34;;;;;;;17.05;10.43;;;;;;;-0.57;100.00;99586.58;1713138;83;21136;-82
2021/12/08 01:26:01;;;;;;;15.53;9.95;;;;;;;-0.59;100.00;99581.40;1713142;83;21530;-82
2021/12/08 01:28:28;;;;;;;16.25;10.32;;;;;;;-0.60;100.00;99571.90;1658316;85;21013;-83
2021/12/08 01:30:56;;;;;;;17.40;10.95;;;;;;;-0.60;100.00;99581.39;1713086;83;21070;-82
2021/12/08 01:33:30;;;;;;;18.00;9.50;;;;;;;-0.61;100.00;99584.41;1713158;83;21081;-82
2021/12/08 01:35:51;;;;;;;17.42;10.15;;;;;;;-0.58;100.00;99587.42;1711881;82;21072;-82
2021/12/08 01:38:18;;;;;;;17.20;9.88;;;;;;;-0.61;100.00;99580.97;1723102;83;21508;-84
2021/12/08 01:40:45;;;;;;;19.23;10.98;;;;;;;-0.61;100.00;99592.61;1725934;82;21049;-82
2021/12/08 01:43:23;;;;;;;17.23;10.35;;;;;;;-0.64;100.00;99582.70;1726565;82;21449;-84
2021/12/08 01:45:59;;;;;;;18.92;10.85;;;;;;;-0.64;100.00;99591.75;1725385;82;21137;-85
2021/12/08 01:48:30;;;;;;;18.48;10.72;;;;;;;-0.59;100.00;99596.06;1726404;83;21037;-86
2021/12/08 01:51:10;;;;;;;21.07;10.95;;;;;;;-0.59;100.00;99589.16;1726349;82;21535;-85
2021/12/08 01:53:42;;;;;;;15.13;8.58;;;;;;;-0.62;100.00;99584.00;1726336;83;21053;-84
2021/12/08 01:56:11;;;;;;;17.82;10.13;;;;;;;-0.56;100.00;99590.88;1726175;83;21045;-83
2021/12/08 01:58:38;;;;;;;15.48;8.98;;;;;;;-0.56;100.00;99593.47;1726445;83;21044;-85
2021/12/08 02:01:12;;;;;;;17.25;10.63;;;;;;;-0.58;100.00;99592.16;1726920;83;21131;-83
2021/12/08 02:03:39;;;;;;;17.20;10.08;;;;;;;-0.57;100.00;99593.05;1725295;83;21515;-81
2021/12/08 02:06:07;;;;;;;17.07;10.13;;;;;;;-0.58;100.00;99588.28;1726066;83;21623;-84
2021/12/08 02:08:35;;;;;;;18.17;10.50;;;;;;;-0.57;100.00;99589.17;1726626;83;21422;-84
2021/12/08 02:11:03;;;;;;;15.85;9.25;;;;;;;-0.56;100.00;99586.56;1726940;82;21010;-84
2021/12/08 02:13:35;;;;;;;17.25;10.48;;;;;;;-0.54;100.00;99581.39;1692059;84;21052;-83
2021/12/08 02:16:03;;;;;;;15.75;9.30;;;;;;;-0.53;100.00;99580.52;1691844;84;22013;-81
2021/12/08 02:18:30;;;;;;;17.25;9.85;;;;;;;-0.51;100.00;99576.21;1673743;85;21094;-81
2021/12/08 02:21:00;;;;;;;16.77;9.15;;;;;;;-0.53;100.00;99578.81;1673553;85;21643;-83
2021/12/08 02:23:27;;;;;;;14.90;9.33;;;;;;;-0.54;100.00;99572.34;1673329;85;21861;-81
2021/12/08 02:25:53;;;;;;;17.17;10.00;;;;;;;-0.56;100.00;99570.19;1673659;85;21070;-82
2021/12/08 02:28:20;;;;;;;16.12;9.70;;;;;;;-0.55;100.00;99570.20;1673335;85;22323;-83
2021/12/08 02:30:56;;;;;;;14.73;8.68;;;;;;;-0.56;100.00;99572.77;1673542;85;21632;-83
2021/12/08 02:49:49;;;;;;;15.43;9.63;;;;;;;-0.60;100.00;99574.92;1706373;84;20974;-85
2021/12/08 02:52:16;;;;;;;17.23;9.90;;;;;;;-0.58;100.00;99587.42;1707130;84;21005;-85
2021/12/08 02:54:46;;;;;;;15.75;8.93;;;;;;;-0.59;100.00;99574.94;1707285;82;21092;-85
2021/12/08 02:57:14;;;;;;;16.23;10.58;;;;;;;-0.56;100.00;99585.70;1688814;82;21019;-85
2021/12/08 02:59:42;;;;;;;16.32;10.00;;;;;;;-0.49;100.00;99597.77;1682120;83;20987;-85
2021/12/08 03:02:09;;;;;;;18.65;10.72;;;;;;;-0.64;100.00;99575.38;1720463;83;21089;-82
2021/12/08 03:04:36;;;;;;;17.65;9.95;;;;;;;-0.59;100.00;99590.89;1720679;83;21033;-80
2021/12/08 03:07:04;;;;;;;21.10;10.93;;;;;;;-0.57;100.00;99578.82;1720564;82;21730;-82
2021/12/08 03:09:30;;;;;;;18.02;10.90;;;;;;;-0.60;100.00;99574.48;1720871;83;21117;-82
2021/12/08 03:11:58;;;;;;;15.90;9.85;;;;;;;-0.62;100.00;99579.23;1720517;83;21085;-82
2021/12/08 03:14:26;;;;;;;20.30;11.45;;;;;;;-0.66;100.00;99570.19;1720826;83;21018;-81
2021/12/08 03:16:57;;;;;;;16.50;10.13;;;;;;;-0.69;100.00;99570.20;1720565;83;21017;-80
2021/12/08 03:19:25;;;;;;;15.83;10.13;;;;;;;-0.68;100.00;99578.38;1721178;83;21105;-82
2021/12/08 03:21:53;;;;;;;17.02;10.20;;;;;;;-0.72;100.00;99570.62;1720396;83;20978;-82
2021/12/08 03:26:52;;;;;;;16.62;10.00;;;;;;;-0.73;100.00;99571.06;1720489;83;21029;-82
2021/12/08 03:29:22;;;;;;;16.90;10.30;;;;;;;-0.73;100.00;99565.89;1720520;83;21580;-82
2021/12/08 03:31:45;;;;;;;18.05;10.68;;;;;;;-0.72;100.00;99563.72;1720082;83;21100;-82
2021/12/08 03:34:11;;;;;;;17.90;11.05;;;;;;;-0.71;100.00;99561.58;1721296;83;21744;-82
2021/12/08 03:36:39;;;;;;;16.12;9.93;;;;;;;-0.72;100.00;99567.59;1720645;83;21021;-81
2021/12/08 03:39:06;;;;;;;18.32;10.32;;;;;;;-0.68;100.00;99568.47;1715845;82;21496;-80
2021/12/08 03:41:34;;;;;;;18.92;10.82;;;;;;;-0.69;100.00;99569.32;1718256;83;21092;-81
2021/12/08 03:44:02;;;;;;;18.07;11.75;;;;;;;-0.71;100.00;99561.58;1718278;83;21096;-82
2021/12/08 03:46:31;;;;;;;16.82;10.55;;;;;;;-0.71;100.00;99573.22;1717876;83;21084;-82
2021/12/08 03:48:58;;;;;;;18.37;11.00;;;;;;;-0.70;100.00;99573.63;1718207;83;21607;-81
2021/12/08 03:51:24;;;;;;;17.00;10.05;;;;;;;-0.69;100.00;99568.91;1717948;83;21063;-82
2021/12/08 03:53:51;;;;;;;16.97;10.00;;;;;;;-0.74;100.00;99558.98;1718275;83;21049;-82
2021/12/08 03:56:17;;;;;;;20.82;12.05;;;;;;;-0.72;100.00;99567.59;1716040;83;21090;-82
2021/12/08 03:58:44;;;;;;;18.27;10.23;;;;;;;-0.72;100.00;99568.89;1713010;83;21408;-82
2021/12/08 04:01:10;;;;;;;17.95;11.30;;;;;;;-0.71;100.00;99568.05;1712689;83;21069;-81
2021/12/08 04:03:39;;;;;;;17.60;10.55;;;;;;;-0.68;100.00;99557.69;1712370;83;21078;-83
2021/12/08 04:06:24;;;;;;;17.65;11.00;;;;;;;-0.70;100.00;99563.30;1712696;82;21081;-81
2021/12/08 04:08:53;;;;;;;16.12;9.95;;;;;;;-0.72;100.00;99566.74;1710764;83;21154;-80
2021/12/08 04:11:12;;;;;;;17.65;10.38;;;;;;;-0.72;100.00;99562.86;1676600;84;21084;-81
2021/12/08 04:13:50;;;;;;;18.85;11.33;;;;;;;-0.72;100.00;99566.30;1712635;83;21085;-82
2021/12/08 04:16:21;;;;;;;19.48;11.12;;;;;;;-0.70;100.00;99574.92;1712634;82;21505;-81
2021/12/08 04:18:49;;;;;;;18.95;10.95;;;;;;;-0.71;100.00;99568.48;1712627;83;21552;-78
2021/12/08 04:21:16;;;;;;;19.75;11.25;;;;;;;-0.71;100.00;99568.05;1707656;83;21148;-79
2021/12/08 04:23:43;;;;;;;18.82;10.18;;;;;;;-0.67;100.00;99563.31;1672206;85;21068;-77
2021/12/08 04:26:15;;;;;;;18.57;10.32;;;;;;;-0.68;100.00;99564.16;1672508;85;21018;-86
2021/12/08 04:28:42;;;;;;;20.08;11.97;;;;;;;-0.67;100.00;99566.30;1700962;83;21655;-79
2021/12/08 04:31:18;;;;;;;20.20;11.40;;;;;;;-0.64;100.00;99560.71;1706177;83;21620;-72
2021/12/08 04:33:52;;;;;;;20.77;11.57;;;;;;;-0.65;100.00;99561.56;1693495;82;21070;-72
2021/12/08 04:36:17;;;;;;;17.90;10.55;;;;;;;-0.66;100.00;99565.02;1698272;83;21014;-73
2021/12/08 04:38:48;;;;;;;17.15;9.10;;;;;;;-0.67;100.00;99568.48;1703911;82;21101;-71
2021/12/08 04:41:18;;;;;;;19.85;10.75;;;;;;;-0.68;100.00;99562.02;1660559;84;21135;-72
2021/12/08 04:46:40;;;;;;;;;;;;;;;-0.66;100.00;99567.61;1709488;83;21120;-71
2021/12/08 05:03:15;;;;;;;15.63;9.48;;;;;;;-0.64;100.00;99572.35;1712036;82;22047;-69
2021/12/08 05:05:37;;;;;;;17.65;9.75;;;;;;;-0.60;100.00;99576.22;1710411;83;21068;-69
2021/12/08 05:07:57;;;;;;;14.80;8.85;;;;;;;-0.60;100.00;99577.51;1710779;82;21093;-70
2021/12/08 05:10:31;;;;;;;15.28;8.85;;;;;;;-0.59;100.00;99571.49;1710966;82;21115;-68
2021/12/08 05:12:58;;;;;;;16.40;8.93;;;;;;;-0.59;100.00;99570.20;1712320;82;21961;-70
2021/12/08 05:15:37;;;;;;;16.02;8.98;;;;;;;-0.58;100.00;99579.67;1711621;83;21065;-69
2021/12/08 05:18:12;;;;;;;16.05;8.98;;;;;;;-0.61;100.00;99577.09;1711321;82;21018;-71
2021/12/08 05:20:53;;;;;;;15.85;8.33;;;;;;;-0.61;100.00;99581.83;1711773;83;21205;-70
2021/12/08 05:23:31;;;;;;;14.70;8.60;;;;;;;-0.61;100.00;99577.09;1712187;83;21073;-68
2021/12/08 05:26:01;;;;;;;13.00;8.35;;;;;;;-0.64;100.00;99571.06;1684549;83;21588;-70
2021/12/08 05:28:27;;;;;;;13.15;8.43;;;;;;;-0.64;100.00;99573.64;1710589;83;21501;-68
2021/12/08 05:31:09;;;;;;;12.93;7.87;;;;;;;-0.66;100.00;99577.09;1711574;83;21061;-69
2021/12/08 05:33:41;;;;;;;13.40;9.05;;;;;;;-0.66;100.00;99587.00;1677281;84;21044;-69
2021/12/08 05:36:07;;;;;;;;;;;;;;;-0.68;100.00;99587.43;1680067;85;21109;-70
2021/12/08 05:38:34;;;;;;;13.03;8.25;;;;;;;-0.68;100.00;99588.72;1664635;85;21133;-69
2021/12/08 05:41:08;;;;;;;13.15;8.23;;;;;;;-0.70;100.00;99591.73;1648634;86;21056;-68
2021/12/08 05:43:35;;;;;;;13.22;7.87;;;;;;;-0.67;100.00;99591.76;1711915;83;21073;-66
2021/12/08 05:46:02;;;;;;;14.20;8.38;;;;;;;-0.68;100.00;99590.02;1677422;85;21017;-66
2021/12/08 05:48:32;;;;;;;14.13;8.15;;;;;;;-0.68;100.00;99584.84;1711939;83;21038;-68
2021/12/08 05:51:04;;;;;;;16.00;8.93;;;;;;;-0.67;100.00;99581.41;1670683;85;22248;-70
2021/12/08 05:53:34;;;;;;;12.60;7.33;;;;;;;-0.66;100.00;99588.30;1669910;84;21057;-69
2021/12/08 05:56:00;;;;;;;13.65;8.25;;;;;;;-0.60;100.00;99587.86;1667566;84;21041;-67
2021/12/08 05:58:27;;;;;;;18.00;9.00;;;;;;;-0.55;100.00;99596.47;1677079;84;21065;-69
2021/12/08 06:01:05;;;;;;;13.95;8.23;;;;;;;-0.47;100.00;99594.75;1704226;83;21089;-67
2021/12/08 06:03:33;;;;;;;12.82;7.17;;;;;;;-0.41;100.00;99593.46;1704988;82;21149;-68
2021/12/08 06:05:59;;;;;;;13.45;7.85;;;;;;;-0.38;100.00;99601.21;1694042;83;21603;-66
2021/12/08 06:08:28;;;;;;;15.03;7.72;;;;;;;-0.35;100.00;99594.73;1677047;85;21132;-67
2021/12/08 06:10:58;;;;;;;12.07;6.78;;;;;;;-0.29;100.00;99593.44;1670010;85;21059;-67
2021/12/08 06:13:25;;;;;;;14.60;7.53;;;;;;;-0.29;100.00;99593.44;1710883;83;21607;-68
2021/12/08 06:15:52;;;;;;;11.80;6.97;;;;;;;-0.32;100.00;99593.86;1673503;84;21552;-68
2021/12/08 06:18:22;;;;;;;11.33;6.83;;;;;;;-0.35;100.00;99594.73;1657822;84;21067;-69
2021/12/08 06:20:50;;;;;;;12.07;6.83;;;;;;;-0.36;100.00;99599.48;1710348;83;21037;-68
2021/12/08 06:23:17;;;;;;;10.38;6.42;;;;;;;-0.37;100.00;99599.48;1712364;82;21306;-69
2021/12/08 06:25:43;;;;;;;10.98;6.55;;;;;;;-0.38;100.00;99599.91;1678021;84;21113;-68
2021/12/08 06:28:10;;;;;;;11.43;6.90;;;;;;;-0.42;100.00;99602.06;1677952;85;21513;-69
2021/12/08 06:30:38;;;;;;;10.82;6.70;;;;;;;-0.43;100.00;99597.77;1715401;82;21006;-68
2021/12/08 06:33:05;;;;;;;12.15;6.10;;;;;;;-0.45;100.00;99600.79;1688888;84;21113;-68
2021/12/08 06:35:38;;;;;;;10.82;6.30;;;;;;;-0.44;100.00;99598.62;1678662;84;21060;-69
2021/12/08 06:38:05;;;;;;;11.00;6.15;;;;;;;-0.46;100.00;99596.46;1706783;83;21049;-67
2021/12/08 06:40:40;;;;;;;11.57;6.67;;;;;;;-0.48;100.00;99591.75;1686064;83;21108;-69
2021/12/08 06:43:11;;;;;;;8.93;5.45;;;;;;;-0.45;100.00;99591.73;1711778;82;21053;-68
2021/12/08 06:45:42;;;;;;;8.13;5.40;;;;;;;-0.43;100.00;99590.86;1712355;82;21062;-68
2021/12/08 06:48:15;;;;;;;10.00;6.10;;;;;;;-0.40;100.00;99592.58;1710712;82;21055;-68
2021/12/08 06:50:48;;;;;;;9.75;6.12;;;;;;;-0.40;100.00;99595.17;1673157;84;21112;-68
2021/12/08 06:53:14;;;;;;;12.13;6.60;;;;;;;-0.41;100.00;99593.46;1703452;83;21129;-68
2021/12/08 06:55:51;;;;;;;11.05;6.55;;;;;;;-0.40;100.00;99591.29;1706408;83;21078;-67
2021/12/08 06:58:23;;;;;;;9.73;5.72;;;;;;;-0.39;100.00;99590.45;1701483;83;21033;-67
2021/12/08 07:01:13;;;;;;;10.15;5.95;;;;;;;-0.38;100.00;99586.98;1705288;83;21086;-69
2021/12/08 07:03:39;;;;;;;10.72;6.70;;;;;;;-0.37;100.00;99585.25;1703995;83;21085;-68
2021/12/08 07:06:12;;;;;;;9.80;5.85;;;;;;;-0.38;100.00;99577.92;1705326;83;21155;-68
2021/12/08 07:08:46;;;;;;;9.45;5.65;;;;;;;-0.40;100.00;99587.41;1691982;83;21089;-67
2021/12/08 07:11:14;;;;;;;11.08;5.05;;;;;;;-0.38;100.00;99588.27;1704682;83;21092;-68
2021/12/08 07:13:41;;;;;;;8.63;5.00;;;;;;;-0.39;100.00;99583.98;1702993;83;21042;-67
2021/12/08 07:16:15;;;;;;;7.72;4.87;;;;;;;-0.39;100.00;99577.91;1708881;82;21563;-69
2021/12/08 07:19:00;;;;;;;7.87;4.72;;;;;;;-0.38;100.00;99581.80;1709761;83;21533;-69
2021/12/08 07:21:29;;;;;;;6.65;4.47;;;;;;;-0.37;100.00;99586.54;1711860;82;21077;-68
2021/12/08 07:24:06;;;;;;;8.00;4.37;;;;;;;-0.39;100.00;99581.39;1677869;85;21057;-69
2021/12/08 07:26:36;;;;;;;7.97;4.45;;;;;;;-0.37;100.00;99583.95;1676442;85;21536;-72
2021/12/08 07:29:03;;;;;;;10.50;5.05;;;;;;;-0.35;100.00;99579.20;1712368;83;21545;-70
2021/12/08 07:31:46;;;;;;;6.95;4.55;;;;;;;-0.34;100.00;99568.45;1677650;85;21131;-71
2021/12/08 07:34:17;;;;;;;8.45;4.75;;;;;;;-0.34;100.00;99571.89;1712408;83;21124;-68
2021/12/08 07:36:42;;;;;;;7.80;4.60;;;;;;;-0.33;100.00;99567.56;1677106;85;21064;-67
2021/12/08 07:39:17;;;;;;;7.58;4.90;;;;;;;-0.31;100.00;99577.05;1680003;85;21023;-70
2021/12/08 07:41:51;;;;;;;8.55;4.72;;;;;;;-0.34;100.00;99565.42;1719967;83;21050;-69
2021/12/08 07:44:17;;;;;;;6.78;4.15;;;;;;;-0.34;100.00;99566.71;1685011;85;21850;-69
2021/12/08 07:46:49;;;;;;;7.45;4.25;;;;;;;-0.31;100.00;99567.98;1719358;83;21025;-67
2021/12/08 07:49:26;;;;;;;7.72;4.25;;;;;;;-0.31;100.00;99564.11;1715159;83;21026;-67
2021/12/08 07:52:00;;;;;;;7.37;3.98;;;;;;;-0.31;100.00;99569.28;1717413;83;21469;-67
2021/12/08 07:54:29;;;;;;;7.67;4.83;;;;;;;-0.31;100.00;99571.88;1718690;83;21551;-69
2021/12/08 07:56:56;;;;;;;7.28;4.28;;;;;;;-0.30;100.00;99575.31;1719783;83;21134;-68
2021/12/08 07:59:23;;;;;;;8.25;4.30;;;;;;;-0.27;100.00;99571.45;1719818;83;21042;-70
2021/12/08 08:01:53;;;;;;;8.35;4.45;;;;;;;-0.25;100.00;99581.37;1701567;82;21097;-69
2021/12/08 08:04:22;;;;;;;6.90;4.40;;;;;;;-0.25;100.00;99579.63;1715439;82;21072;-69
2021/12/08 08:06:53;;;;;;;6.50;4.33;;;;;;;-0.23;100.00;99581.79;1719801;83;21794;-68
2021/12/08 08:09:31;;;;;;;6.10;3.95;;;;;;;-0.22;100.00;99575.73;1719718;83;21074;-70
2021/12/08 08:12:00;;;;;;;7.47;4.20;;;;;;;-0.22;100.00;99570.56;1700520;83;21632;-68
2021/12/08 08:14:34;;;;;;;5.92;3.70;;;;;;;-0.22;100.00;99570.56;1684335;84;21096;-69
2021/12/08 08:17:00;;;;;;;6.15;3.77;;;;;;;-0.23;100.00;99570.14;1684373;84;21068;-69
2021/12/08 08:19:30;;;;;;;6.37;4.05;;;;;;;-0.22;100.00;99576.17;1685349;85;21072;-69
2021/12/08 08:22:05;;;;;;;9.28;4.15;;;;;;;-0.19;100.00;99568.83;1684874;84;21768;-70
2021/12/08 08:24:31;;;;;;;6.58;4.05;;;;;;;-0.19;100.00;99552.86;1684917;85;21045;-69
2021/12/08 08:27:00;;;;;;;8.45;4.28;;;;;;;-0.12;100.00;99560.18;1685243;85;21559;-69
2021/12/08 08:29:26;;;;;;;6.30;3.80;;;;;;;-0.13;100.00;99554.59;1656966;84;21623;-69
2021/12/08 08:31:59;;;;;;;6.17;3.83;;;;;;;-0.15;100.00;99543.37;1684181;84;21041;-69
2021/12/08 08:34:33;;;;;;;5.20;3.52;;;;;;;-0.17;100.00;99550.28;1685636;85;21685;-70
2021/12/08 08:36:59;;;;;;;6.17;3.80;;;;;;;-0.14;100.00;99552.85;1684697;84;21064;-67
2021/12/08 08:39:29;;;;;;;6.33;3.67;;;;;;;-0.14;100.00;99548.97;1678717;85;21088;-69
2021/12/08 08:42:05;;;;;;;6.22;4.03;;;;;;;-0.27;100.00;99534.78;1737134;82;21737;-72
2021/12/08 08:44:37;;;;;;;7.25;4.50;;;;;;;-0.14;100.00;99558.03;1695320;82;21062;-69
2021/12/08 08:47:09;;;;;;;6.35;3.95;;;;;;;-0.10;100.00;99554.57;1703063;83;21150;-70
2021/12/08 08:49:36;;;;;;;5.40;3.70;;;;;;;-0.09;100.00;99556.28;1669549;84;21006;-70
2021/12/08 08:54:22;;;;;;;6.97;4.03;;;;;;;-0.07;100.00;99552.84;1802832;79;22728;-70
2021/12/08 08:57:00;;;;;;;6.85;4.72;;;;;;;-0.15;100.00;99555.02;1767884;80;21083;-70
2021/12/08 08:59:33;;;;;;;7.15;4.17;;;;;;;-0.15;100.00;99549.84;1774301;78;21552;-69
2021/12/08 09:02:04;;;;;;;7.00;4.55;;;;;;;-0.20;100.00;99545.98;1774419;78;21107;-69
2021/12/08 09:04:33;;;;;;;7.58;4.30;;;;;;;-0.23;100.00;99542.08;1763586;78;22027;-66
2021/12/08 09:07:04;;;;;;;8.85;4.80;;;;;;;-0.25;100.00;99538.23;1771372;80;21099;-69
2021/12/08 09:09:34;;;;;;;;;;;;;;;-0.28;100.00;99539.95;1727729;83;21938;-71
2021/12/08 09:12:07;;;;;;;7.67;4.60;;;;;;;-0.28;100.00;99538.21;1724822;83;21537;-69
2021/12/08 09:14:44;;;;;;;10.78;4.83;;;;;;;-0.29;100.00;99541.68;1724646;83;21141;-71
2021/12/08 09:17:31;;;;;;;8.15;4.62;;;;;;;-0.29;100.00;99548.15;1699522;81;21096;-70
2021/12/08 09:20:22;;;;;;;7.22;3.77;;;;;;;-0.29;100.00;99545.56;1665137;86;21079;-70
2021/12/08 09:22:56;;;;;;;10.75;6.75;;;;;;;-0.28;100.00;99538.21;1722715;83;21172;-69
2021/12/08 09:25:44;;;;;;;7.35;4.72;;;;;;;-0.27;100.00;99538.66;1724229;83;21159;-69
2021/12/08 09:28:18;;;;;;;8.35;4.60;;;;;;;-0.29;100.00;99539.09;1696412;84;21595;-69
2021/12/08 09:30:50;;;;;;;7.58;4.55;;;;;;;-0.31;100.00;99538.23;1692410;83;21112;-70
2021/12/08 09:33:23;;;;;;;7.08;4.60;;;;;;;-0.31;100.00;99541.27;1720516;82;21064;-71
2021/12/08 09:35:57;;;;;;;7.53;4.78;;;;;;;-0.29;100.00;99541.68;1705134;82;21033;-70
2021/12/08 09:38:29;;;;;;;8.10;4.85;;;;;;;-0.26;100.00;99540.81;1700582;82;22080;-69
2021/12/08 09:41:01;;;;;;;11.57;7.10;;;;;;;-0.25;100.00;99545.14;1698383;84;21094;-70
2021/12/08 09:43:51;;;;;;;10.85;6.70;;;;;;;-0.24;100.00;99552.02;1687560;85;21035;-70
2021/12/08 09:46:23;;;;;;;9.00;5.37;;;;;;;-0.26;100.00;99538.22;1668228;83;21040;-70
2021/12/08 09:48:50;;;;;;;10.90;5.72;;;;;;;-0.28;100.00;99538.21;1701123;84;21098;-70
2021/12/08 09:51:20;;;;;;;11.78;6.22;;;;;;;-0.29;100.00;99539.09;1701770;84;21085;-70
2021/12/08 09:53:47;;;;;;;8.73;5.35;;;;;;;-0.33;100.00;99538.66;1704185;82;21634;-71
2021/12/08 09:56:15;;;;;;;11.80;6.92;;;;;;;-0.35;100.00;99542.98;1729433;82;21031;-72
2021/12/08 09:58:43;;;;;;;11.28;6.03;;;;;;;-0.38;100.00;99530.50;1710981;82;21090;-70
2021/12/08 10:01:14;;;;;;;12.05;6.67;;;;;;;-0.36;100.00;99539.98;1761858;80;20994;-70
2021/12/08 10:03:39;;;;;;;13.22;7.17;;;;;;;-0.34;100.00;99532.22;1725726;80;21114;-71
2021/12/08 10:06:08;;;;;;;10.43;6.45;;;;;;;-0.33;100.00;99539.10;1738973;81;21075;-71
2021/12/08 10:08:35;;;;;;;14.78;7.67;;;;;;;-0.35;100.00;99533.92;1739444;82;21152;-73
2021/12/08 10:11:03;;;;;;;16.15;8.43;;;;;;;-0.38;100.00;99525.33;1704659;83;21091;-70
2021/12/08 10:13:30;;;;;;;12.98;7.60;;;;;;;-0.39;100.00;99523.18;1723600;81;21037;-68
2021/12/08 10:15:57;;;;;;;14.28;7.72;;;;;;;-0.40;100.00;99518.84;1697903;84;22018;-68
2021/12/08 10:18:24;;;;;;;12.63;7.08;;;;;;;-0.44;100.00;99510.25;1724234;82;21047;-70
2021/12/08 10:20:54;;;;;;;13.43;7.87;;;;;;;-0.44;100.00;99510.66;1690914;84;21031;-69
2021/12/08 10:23:30;;;;;;;13.43;7.12;;;;;;;-0.44;100.00;99511.95;1724172;82;21065;-69
2021/12/08 10:26:07;;;;;;;10.63;6.12;;;;;;;-0.43;100.00;99505.94;1726423;82;21061;-67
2021/12/08 10:28:39;;;;;;;13.38;7.47;;;;;;;-0.39;100.00;99510.65;1718932;82;22002;-69
2021/12/08 10:31:17;;;;;;;11.50;6.53;;;;;;;-0.37;100.00;99503.31;1718853;82;21027;-70
2021/12/08 10:34:14;;;;;;;13.85;7.28;;;;;;;-0.38;100.00;99504.19;1690075;84;21731;-69
2021/12/08 10:36:58;;;;;;;11.90;7.17;;;;;;;-0.37;100.00;99510.22;1696177;82;21347;-70
2021/12/08 10:39:27;;;;;;;15.53;8.10;;;;;;;-0.37;100.00;99496.84;1692433;83;21062;-69
2021/12/08 10:42:17;;;;;;;15.43;8.28;;;;;;;-0.38;100.00;99497.72;1722909;82;21665;-69
2021/12/08 10:47:47;;;;;;;14.20;7.03;;;;;;;-0.42;100.00;99496.00;1682573;82;79042;-70
2021/12/08 10:56:11;;;;;;;12.73;7.03;;;;;;;-0.37;100.00;99485.20;1658222;84;21667;-73
2021/12/08 10:58:47;;;;;;;14.55;7.05;;;;;;;-0.36;100.00;99477.88;1659404;86;21034;-72
2021/12/08 11:01:19;;;;;;;14.10;8.03;;;;;;;-0.35;100.00;99479.59;1630270;85;21079;-72
2021/12/08 11:03:48;;;;;;;12.58;7.03;;;;;;;-0.36;100.00;99475.73;1670604;85;21647;-72
2021/12/08 11:06:16;;;;;;;13.80;8.30;;;;;;;-0.38;100.00;99470.99;1676542;83;21088;-72
2021/12/08 11:08:48;;;;;;;17.77;9.30;;;;;;;-0.37;100.00;99474.84;1659826;85;21203;-72
2021/12/08 11:11:22;;;;;;;14.75;7.92;;;;;;;-0.36;100.00;99467.53;1642383;86;21100;-70
2021/12/08 11:13:56;;;;;;;14.00;7.50;;;;;;;-0.35;100.00;99478.30;1665319;85;21097;-69
2021/12/08 11:16:33;;;;;;;15.90;8.53;;;;;;;-0.34;100.00;99470.98;1653860;85;21092;-69
2021/12/08 11:19:09;;;;;;;16.27;8.50;;;;;;;-0.32;100.00;99472.25;1653033;86;21096;-69
2021/12/08 11:21:40;;;;;;;17.75;9.65;;;;;;;-0.29;100.00;99470.97;1688336;84;21156;-67
2021/12/08 11:24:31;;;;;;;14.60;8.28;;;;;;;-0.25;100.00;99473.53;1712817;83;21678;-69
2021/12/08 11:26:50;;;;;;;17.80;9.05;;;;;;;-0.25;100.00;99470.95;1685808;84;21047;-67
2021/12/08 11:29:25;;;;;;;15.68;9.03;;;;;;;-0.24;100.00;99474.39;1662270;85;21102;-69
2021/12/08 11:32:02;;;;;;;15.98;8.88;;;;;;;-0.24;100.00;99468.77;1671101;84;21165;-70
2021/12/08 11:34:33;;;;;;;16.02;8.88;;;;;;;-0.24;100.00;99470.06;1659141;85;21212;-70
2021/12/08 11:37:08;;;;;;;18.17;9.53;;;;;;;-0.27;100.00;99470.09;1638973;85;21092;-70
2021/12/08 11:39:40;;;;;;;15.98;8.68;;;;;;;-0.27;100.00;99466.65;1659938;84;21679;-70
2021/12/08 11:42:16;;;;;;;22.42;10.32;;;;;;;-0.31;100.00;99459.31;1660947;85;21116;-72
2021/12/08 11:44:50;;;;;;;18.80;9.43;;;;;;;-0.30;100.00;99453.70;1664969;85;21120;-71
2021/12/08 11:47:25;;;;;;;16.12;8.28;;;;;;;-0.31;100.00;99455.44;1669929;85;21964;-71
2021/12/08 11:49:59;;;;;;;16.60;8.63;;;;;;;-0.31;100.00;99447.67;1652801;85;21097;-69
2021/12/08 11:52:32;;;;;;;16.48;9.38;;;;;;;-0.30;100.00;99444.23;1683024;84;21068;-71
2021/12/08 11:55:07;;;;;;;15.23;8.23;;;;;;;-0.28;100.00;99441.62;1699517;82;21687;-71
2021/12/08 11:57:44;;;;;;;13.60;7.50;;;;;;;-0.29;100.00;99439.47;1665356;84;21160;-71
2021/12/08 12:00:17;;;;;;;12.55;7.28;;;;;;;-0.29;100.00;99436.89;1665594;86;21166;-71
2021/12/08 12:02:52;;;;;;;13.90;7.75;;;;;;;-0.27;100.00;99435.59;1665463;86;21085;-71
2021/12/08 12:05:20;;;;;;;17.95;8.65;;;;;;;-0.28;100.00;99441.18;1665489;86;21090;-71
2021/12/08 12:07:47;;;;;;;17.90;7.62;;;;;;;-0.28;100.00;99433.41;1648296;86;21081;-70
2021/12/08 12:10:17;;;;;;;14.23;8.30;;;;;;;-0.28;100.00;99437.30;1653881;86;21742;-72
2021/12/08 12:12:43;;;;;;;12.70;6.80;;;;;;;-0.27;100.00;99433.86;1652916;86;21149;-70
2021/12/08 12:15:14;;;;;;;14.13;8.03;;;;;;;-0.26;100.00;99435.56;1651179;86;21082;-71
2021/12/08 12:17:42;;;;;;;22.42;10.80;;;;;;;-0.23;100.00;99443.34;1653344;86;21080;-71
2021/12/08 12:20:15;;;;;;;19.20;9.50;;;;;;;-0.24;100.00;99439.45;1682824;85;21480;-72
2021/12/08 12:23:20;;;;;;;16.70;8.53;;;;;;;-0.26;100.00;99436.86;1678615;85;21349;-70